Monette, Arkansas
Current Conditions -  °F | °C
As of 10:53 AM on Sunday 23 Nov 2014 (Local Time) from KJBR Reporting Station
Light Rain Light Rain  
Wind Chill: 58°   Ceiling: 800
Heat Index: 58°   Visibility: 10mi
Dew Point: 57°   Wind: 10mph
Humidity: 97%   Direction: 140°SE
Pressure: 29.56"   Gusts: NA
Location:  35.89°N, 90.34°W
Report Text: KJBR 231653Z AUTO 14009KT 10SM -RA OVC008 14/14 A2956 RMK AO2 RAB21 CIG 005V011 SLP009 P0001 T01440139 $
Loading
Personal Weather Stations






























Interactive Weather Map New forecast layout! Learn more

10-Day Weather Forecast

Advertisements
Track Severe Weather on mobile